createdAt,value
2018-12-14T00:02:46.904Z,91.91
2018-12-14T00:08:03.978Z,91.91
2018-12-14T00:13:16.092Z,91.47
2018-12-14T00:18:27.360Z,92.40
2018-12-14T00:23:41.936Z,92.61
2018-12-14T00:28:52.975Z,92.76
2018-12-14T00:34:05.743Z,92.28
2018-12-14T00:39:16.817Z,92.87
2018-12-14T00:44:29.021Z,92.85
2018-12-14T00:49:40.225Z,92.21
2018-12-14T00:54:54.149Z,92.85
2018-12-14T01:00:08.634Z,92.90
2018-12-14T01:05:20.800Z,92.41
2018-12-14T01:10:31.748Z,92.43
2018-12-14T01:15:43.888Z,92.85
2018-12-14T01:20:55.893Z,92.68
2018-12-14T01:26:07.375Z,92.96
2018-12-14T01:31:19.448Z,92.79
2018-12-14T01:36:30.509Z,92.91
2018-12-14T01:41:42.626Z,92.99
2018-12-14T01:46:54.222Z,92.65
2018-12-14T01:52:06.133Z,92.69
2018-12-14T01:57:19.154Z,92.72
2018-12-14T02:02:35.251Z,93.29
2018-12-14T02:07:47.669Z,92.99
2018-12-14T02:12:59.808Z,92.89
2018-12-14T02:18:11.064Z,93.08
2018-12-14T02:23:23.052Z,92.98
2018-12-14T02:28:34.104Z,92.68
2018-12-14T02:33:46.495Z,93.39
2018-12-14T02:38:57.560Z,93.62
2018-12-14T02:44:06.260Z,93.40
2018-12-14T02:49:17.313Z,92.88
2018-12-14T02:54:29.652Z,92.90
2018-12-14T02:59:40.678Z,92.52
2018-12-14T03:04:55.256Z,92.59
2018-12-14T03:10:02.833Z,91.58
2018-12-14T03:15:14.853Z,91.20
2018-12-14T03:20:25.865Z,91.69
2018-12-14T03:25:38.298Z,91.90
2018-12-14T03:30:50.514Z,91.37
2018-12-14T03:36:01.603Z,90.84
2018-12-14T03:41:13.719Z,91.11
2018-12-14T03:46:24.766Z,91.07
2018-12-14T03:51:36.881Z,91.40
2018-12-14T03:56:48.027Z,91.16
2018-12-14T04:02:00.561Z,91.41
2018-12-14T04:07:11.470Z,90.86
2018-12-14T04:12:23.412Z,90.28
2018-12-14T04:17:36.643Z,90.28
2018-12-14T04:22:49.185Z,90.12
2018-12-14T04:28:00.249Z,89.36
2018-12-14T04:33:12.415Z,89.35
2018-12-14T04:38:23.565Z,89.06
2018-12-14T04:43:32.070Z,88.98
2018-12-14T04:48:43.032Z,88.25
2018-12-14T04:51:12.353Z,87.81
2018-12-14T04:56:23.379Z,88.33
2018-12-14T05:01:35.660Z,87.23
2018-12-14T05:06:47.185Z,87.81
2018-12-14T05:11:59.204Z,86.96
2018-12-14T05:17:10.223Z,85.58
2018-12-14T05:22:22.576Z,83.36
2018-12-14T05:27:33.672Z,84.74
2018-12-14T05:32:45.930Z,86.99
2018-12-14T05:37:56.979Z,88.30
2018-12-14T05:43:08.967Z,88.72
2018-12-14T05:48:19.964Z,89.63
2018-12-14T05:53:31.998Z,89.52
2018-12-14T05:58:42.952Z,89.50
2018-12-14T06:03:55.410Z,89.59
2018-12-14T06:09:08.039Z,89.74
2018-12-14T06:14:20.084Z,89.33
2018-12-14T06:19:31.164Z,89.58
2018-12-14T06:24:43.664Z,89.51
2018-12-14T06:29:57.084Z,89.88
2018-12-14T06:35:09.794Z,89.31
2018-12-14T06:40:20.847Z,88.68
2018-12-14T06:45:32.972Z,89.46
2018-12-14T06:50:48.210Z,89.33
2018-12-14T06:56:01.123Z,89.06
2018-12-14T07:01:13.303Z,88.40
2018-12-14T07:06:24.288Z,88.97
2018-12-14T07:11:40.045Z,89.25
2018-12-14T07:16:51.128Z,88.71
2018-12-14T07:22:03.302Z,88.59
2018-12-14T07:27:15.775Z,88.51
2018-12-14T07:32:28.108Z,87.84
2018-12-14T07:37:36.001Z,88.66
2018-12-14T07:42:49.905Z,88.04
2018-12-14T07:48:04.303Z,88.31
2018-12-14T07:53:16.944Z,88.60
2018-12-14T07:58:24.502Z,89.23
2018-12-14T08:03:38.497Z,88.86
2018-12-14T08:08:49.553Z,88.05
2018-12-14T08:14:01.549Z,87.79
2018-12-14T08:19:14.471Z,88.10
2018-12-14T08:24:26.644Z,88.34
2018-12-14T08:29:37.707Z,87.55
2018-12-14T08:34:51.095Z,88.06
2018-12-14T08:42:44.148Z,87.42
2018-12-14T08:47:55.993Z,87.59
2018-12-14T08:50:25.770Z,87.26
2018-12-14T08:55:37.805Z,87.78
2018-12-14T09:00:49.357Z,87.92
2018-12-14T09:06:01.446Z,87.43
2018-12-14T09:11:13.591Z,87.65
2018-12-14T09:16:24.683Z,86.42
2018-12-14T09:21:37.416Z,86.80
2018-12-14T09:26:49.705Z,86.56
2018-12-14T09:31:58.633Z,85.62
2018-12-14T09:37:11.147Z,85.47
2018-12-14T09:42:23.179Z,84.90
2018-12-14T09:47:36.245Z,83.90
2018-12-14T09:50:06.029Z,85.15
2018-12-14T09:55:18.195Z,84.97
2018-12-14T10:00:29.288Z,85.02
2018-12-14T10:05:41.222Z,83.76
2018-12-14T10:10:53.908Z,83.97
2018-12-14T10:16:06.681Z,84.01
2018-12-14T10:18:36.265Z,83.99
2018-12-14T10:21:06.002Z,83.44
2018-12-14T10:26:17.089Z,82.97
2018-12-14T10:31:29.273Z,83.16
2018-12-14T10:36:41.573Z,82.54
2018-12-14T10:41:54.133Z,82.94
2018-12-14T10:47:05.320Z,82.53
2018-12-14T10:52:17.557Z,82.16
2018-12-14T10:57:28.749Z,81.56
2018-12-14T11:02:50.829Z,81.85
2018-12-14T11:07:58.352Z,81.49
2018-12-14T11:13:10.560Z,80.01
2018-12-14T11:18:23.780Z,80.68
2018-12-14T11:20:53.128Z,80.23
2018-12-14T11:26:06.249Z,79.50
2018-12-14T11:28:35.709Z,79.83
2018-12-14T11:31:05.254Z,80.15
2018-12-14T11:36:18.425Z,78.91
2018-12-14T11:41:30.581Z,78.84
2018-12-14T11:46:45.172Z,77.32
2018-12-14T11:51:57.241Z,76.63
2018-12-14T11:57:08.205Z,76.04
2018-12-14T11:59:37.543Z,75.41
2018-12-14T12:04:49.824Z,74.14
2018-12-14T12:09:57.378Z,73.54
2018-12-14T12:12:26.897Z,72.91
2018-12-14T12:17:39.348Z,74.19
2018-12-14T12:22:52.657Z,73.29
2018-12-14T12:28:01.412Z,73.01
2018-12-14T12:33:13.790Z,73.02
2018-12-14T12:38:25.625Z,70.82
2018-12-14T12:43:40.132Z,72.30
2018-12-14T12:48:53.341Z,70.63
2018-12-14T12:54:06.393Z,71.74
2018-12-14T12:59:17.753Z,73.32
2018-12-14T13:01:47.231Z,73.34
2018-12-14T13:07:02.304Z,73.05
2018-12-14T13:12:14.758Z,71.69
2018-12-14T13:17:25.954Z,72.25
2018-12-14T13:22:34.644Z,70.72
2018-12-14T13:27:46.216Z,70.76
2018-12-14T13:32:58.974Z,69.28
2018-12-14T13:38:12.292Z,67.98
2018-12-14T13:43:24.910Z,68.24
2018-12-14T13:48:36.509Z,68.47
2018-12-14T13:53:49.018Z,68.67
2018-12-14T13:59:01.505Z,68.50
2018-12-14T14:04:16.620Z,69.55
2018-12-14T14:09:28.256Z,68.27
2018-12-14T14:14:40.772Z,69.16
2018-12-14T14:19:52.582Z,68.82
2018-12-14T14:25:05.576Z,70.79
2018-12-14T14:30:17.328Z,71.70
2018-12-14T14:35:29.577Z,72.73
2018-12-14T14:40:40.670Z,73.37
2018-12-14T14:45:52.966Z,73.31
2018-12-14T14:51:06.036Z,74.39
2018-12-14T14:56:17.259Z,76.88
2018-12-14T15:01:29.929Z,76.92
2018-12-14T15:06:45.283Z,78.43
2018-12-14T15:09:14.764Z,79.04
2018-12-14T15:11:44.434Z,79.73
2018-12-14T15:16:56.121Z,79.54
2018-12-14T15:19:25.717Z,80.24
2018-12-14T15:24:38.204Z,79.38
2018-12-14T15:29:46.868Z,80.29
2018-12-14T15:34:56.086Z,80.02
2018-12-14T15:40:10.974Z,81.08
2018-12-14T15:45:26.412Z,80.92
2018-12-14T15:50:37.656Z,81.61
2018-12-14T15:55:50.109Z,81.09
2018-12-14T16:01:02.519Z,82.03
2018-12-14T16:06:13.839Z,81.18
2018-12-14T16:11:23.036Z,82.04
2018-12-14T16:16:34.674Z,82.04
2018-12-14T16:21:47.079Z,82.10
2018-12-14T16:26:59.019Z,82.69
2018-12-14T16:32:11.218Z,82.81
2018-12-14T16:37:24.567Z,82.20
2018-12-14T16:42:36.533Z,82.31
2018-12-14T16:47:48.492Z,81.77
2018-12-14T16:53:00.413Z,80.79
2018-12-14T16:58:11.375Z,80.70
2018-12-14T17:03:23.560Z,80.36
2018-12-14T17:08:37.559Z,80.37
2018-12-14T17:11:06.902Z,80.84
2018-12-14T17:16:20.077Z,79.60
2018-12-14T17:21:32.237Z,78.96
2018-12-14T17:26:43.526Z,79.19
2018-12-14T17:31:55.526Z,78.90
2018-12-14T17:37:07.627Z,77.86
2018-12-14T17:42:19.770Z,79.42
2018-12-14T17:47:32.452Z,78.16
2018-12-14T17:50:01.921Z,78.59
2018-12-14T17:55:14.196Z,78.41
2018-12-14T18:00:25.379Z,79.36
2018-12-14T18:05:37.457Z,79.15
2018-12-14T18:10:48.670Z,78.55
2018-12-14T18:16:00.634Z,79.09
2018-12-14T18:21:12.762Z,79.69
2018-12-14T18:26:23.661Z,79.08
2018-12-14T18:31:38.866Z,80.41
2018-12-14T18:36:49.944Z,79.70
2018-12-14T18:42:04.527Z,79.02
2018-12-14T18:47:15.535Z,78.43
2018-12-14T18:52:28.256Z,76.83
2018-12-14T18:57:39.897Z,74.67
2018-12-14T19:02:56.424Z,74.16
2018-12-14T19:08:10.580Z,73.35
2018-12-14T19:13:26.287Z,72.87
2018-12-14T19:18:38.311Z,70.67
2018-12-14T19:21:08.137Z,70.45
2018-12-14T19:26:16.365Z,70.34
2018-12-14T19:31:30.686Z,64.42
2018-12-14T19:36:41.968Z,62.74
2018-12-14T19:39:11.775Z,62.44
2018-12-14T19:41:41.435Z,59.98
2018-12-14T19:46:53.744Z,60.69
2018-12-14T19:52:08.537Z,62.43
2018-12-14T19:57:20.719Z,60.62
2018-12-14T20:02:35.172Z,60.56
2018-12-14T20:07:46.980Z,59.33
2018-12-14T20:10:16.540Z,60.39
2018-12-14T20:15:30.371Z,60.74
2018-12-14T20:20:48.450Z,61.86
2018-12-14T20:26:00.670Z,61.95
2018-12-14T20:31:15.059Z,62.09
2018-12-14T20:36:27.584Z,61.08
2018-12-14T20:41:39.889Z,61.60
2018-12-14T20:46:52.338Z,61.75
2018-12-14T20:52:07.030Z,61.42
2018-12-14T20:57:19.253Z,61.25
2018-12-14T21:02:31.538Z,60.70
2018-12-14T21:07:42.682Z,61.11
2018-12-14T21:12:52.032Z,61.20
2018-12-14T21:18:04.610Z,61.31
2018-12-14T21:23:17.752Z,60.20
2018-12-14T21:28:29.257Z,60.55
2018-12-14T21:33:44.230Z,60.62
2018-12-14T21:38:56.713Z,61.63
2018-12-14T21:44:15.276Z,61.54
2018-12-14T21:49:28.822Z,61.17
2018-12-14T21:54:41.191Z,60.86
2018-12-14T21:59:52.309Z,61.43
2018-12-14T22:05:06.304Z,61.20
2018-12-14T22:10:17.445Z,61.92
2018-12-14T22:15:29.544Z,61.62
2018-12-14T22:20:43.536Z,62.06
2018-12-14T22:25:55.732Z,61.10
2018-12-14T22:31:07.978Z,60.98
2018-12-14T22:36:19.008Z,61.71
2018-12-14T22:41:31.341Z,60.95
2018-12-14T22:46:45.684Z,61.26
2018-12-14T22:51:57.691Z,60.80
2018-12-14T22:57:10.928Z,60.78
2018-12-14T23:02:20.065Z,61.45
2018-12-14T23:07:31.140Z,60.73
2018-12-14T23:12:43.248Z,60.70
2018-12-14T23:17:54.191Z,60.90
2018-12-14T23:23:06.241Z,61.30
2018-12-14T23:28:19.523Z,60.02
2018-12-14T23:33:28.015Z,59.58
2018-12-14T23:38:36.036Z,59.77
2018-12-14T23:43:48.229Z,59.88
2018-12-14T23:48:59.276Z,60.35
2018-12-14T23:51:28.976Z,60.25
2018-12-14T23:56:40.033Z,60.17
